sensor_id;sensor_type;location;lat;lon;timestamp;P1;durP1;ratioP1;P2;durP2;ratioP2
79702;SDS011;69172;52.352;5.006;2023-08-06T00:01:28;18.85;;;11.07;;
79702;SDS011;69172;52.352;5.006;2023-08-06T00:03:54;17.45;;;10.73;;
79702;SDS011;69172;52.352;5.006;2023-08-06T00:06:19;19.67;;;11.05;;
79702;SDS011;69172;52.352;5.006;2023-08-06T00:08:44;17.75;;;11.32;;
79702;SDS011;69172;52.352;5.006;2023-08-06T00:11:10;17.98;;;10.98;;
79702;SDS011;69172;52.352;5.006;2023-08-06T00:13:35;17.45;;;11.10;;
79702;SDS011;69172;52.352;5.006;2023-08-06T00:16:13;17.58;;;11.35;;
79702;SDS011;69172;52.352;5.006;2023-08-06T00:18:39;14.80;;;9.43;;
79702;SDS011;69172;52.352;5.006;2023-08-06T00:21:05;14.88;;;8.65;;
79702;SDS011;69172;52.352;5.006;2023-08-06T00:23:30;16.45;;;8.43;;
79702;SDS011;69172;52.352;5.006;2023-08-06T00:25:56;15.18;;;9.50;;
79702;SDS011;69172;52.352;5.006;2023-08-06T00:28:21;17.33;;;9.70;;
79702;SDS011;69172;52.352;5.006;2023-08-06T00:30:52;15.82;;;9.68;;
79702;SDS011;69172;52.352;5.006;2023-08-06T00:33:19;15.75;;;10.25;;
79702;SDS011;69172;52.352;5.006;2023-08-06T00:35:44;15.52;;;10.23;;
79702;SDS011;69172;52.352;5.006;2023-08-06T00:38:09;17.40;;;10.07;;
79702;SDS011;69172;52.352;5.006;2023-08-06T00:40:34;15.07;;;9.32;;
79702;SDS011;69172;52.352;5.006;2023-08-06T00:43:00;14.50;;;9.15;;
79702;SDS011;69172;52.352;5.006;2023-08-06T00:45:25;13.48;;;7.97;;
79702;SDS011;69172;52.352;5.006;2023-08-06T00:47:55;11.90;;;6.63;;
79702;SDS011;69172;52.352;5.006;2023-08-06T00:50:21;11.52;;;6.40;;
79702;SDS011;69172;52.352;5.006;2023-08-06T00:52:50;11.85;;;6.60;;
79702;SDS011;69172;52.352;5.006;2023-08-06T00:55:16;13.00;;;6.57;;
79702;SDS011;69172;52.352;5.006;2023-08-06T00:57:42;13.00;;;6.25;;
79702;SDS011;69172;52.352;5.006;2023-08-06T01:00:08;12.68;;;7.10;;
79702;SDS011;69172;52.352;5.006;2023-08-06T01:02:37;14.63;;;7.65;;
79702;SDS011;69172;52.352;5.006;2023-08-06T01:05:02;14.75;;;8.70;;
79702;SDS011;69172;52.352;5.006;2023-08-06T01:15:32;14.15;;;7.22;;
79702;SDS011;69172;52.352;5.006;2023-08-06T01:18:03;12.45;;;6.22;;
79702;SDS011;69172;52.352;5.006;2023-08-06T01:20:29;12.40;;;7.20;;
79702;SDS011;69172;52.352;5.006;2023-08-06T01:22:55;12.20;;;7.20;;
79702;SDS011;69172;52.352;5.006;2023-08-06T01:25:21;13.80;;;8.07;;
79702;SDS011;69172;52.352;5.006;2023-08-06T01:27:50;15.75;;;8.45;;
79702;SDS011;69172;52.352;5.006;2023-08-06T01:30:30;14.70;;;8.82;;
79702;SDS011;69172;52.352;5.006;2023-08-06T01:33:03;16.77;;;8.77;;
79702;SDS011;69172;52.352;5.006;2023-08-06T01:35:31;15.50;;;8.85;;
79702;SDS011;69172;52.352;5.006;2023-08-06T01:37:58;14.63;;;8.98;;
79702;SDS011;69172;52.352;5.006;2023-08-06T01:40:25;14.90;;;8.65;;
79702;SDS011;69172;52.352;5.006;2023-08-06T01:42:52;17.63;;;8.98;;
79702;SDS011;69172;52.352;5.006;2023-08-06T01:45:17;15.02;;;8.63;;
79702;SDS011;69172;52.352;5.006;2023-08-06T01:47:43;15.55;;;8.18;;
79702;SDS011;69172;52.352;5.006;2023-08-06T01:50:08;15.60;;;7.82;;
79702;SDS011;69172;52.352;5.006;2023-08-06T01:52:34;15.77;;;7.65;;
79702;SDS011;69172;52.352;5.006;2023-08-06T01:54:59;15.25;;;8.52;;
79702;SDS011;69172;52.352;5.006;2023-08-06T01:57:25;14.73;;;8.15;;
79702;SDS011;69172;52.352;5.006;2023-08-06T01:59:50;14.68;;;8.07;;
79702;SDS011;69172;52.352;5.006;2023-08-06T02:02:16;13.77;;;8.45;;
79702;SDS011;69172;52.352;5.006;2023-08-06T02:04:41;13.05;;;7.57;;
79702;SDS011;69172;52.352;5.006;2023-08-06T02:07:07;14.55;;;8.43;;
79702;SDS011;69172;52.352;5.006;2023-08-06T02:09:32;15.77;;;8.05;;
79702;SDS011;69172;52.352;5.006;2023-08-06T02:11:57;15.63;;;8.30;;
79702;SDS011;69172;52.352;5.006;2023-08-06T02:14:23;13.52;;;7.63;;
79702;SDS011;69172;52.352;5.006;2023-08-06T02:16:48;14.43;;;7.95;;
79702;SDS011;69172;52.352;5.006;2023-08-06T02:19:15;14.55;;;8.07;;
79702;SDS011;69172;52.352;5.006;2023-08-06T02:21:40;15.27;;;8.25;;
79702;SDS011;69172;52.352;5.006;2023-08-06T02:24:05;14.07;;;8.00;;
79702;SDS011;69172;52.352;5.006;2023-08-06T02:26:31;14.02;;;8.13;;
79702;SDS011;69172;52.352;5.006;2023-08-06T02:28:56;14.15;;;8.25;;
79702;SDS011;69172;52.352;5.006;2023-08-06T02:31:22;13.32;;;7.72;;
79702;SDS011;69172;52.352;5.006;2023-08-06T02:33:47;13.57;;;8.07;;
79702;SDS011;69172;52.352;5.006;2023-08-06T02:36:12;16.48;;;9.23;;
79702;SDS011;69172;52.352;5.006;2023-08-06T02:38:38;14.63;;;8.57;;
79702;SDS011;69172;52.352;5.006;2023-08-06T02:41:04;15.80;;;9.38;;
79702;SDS011;69172;52.352;5.006;2023-08-06T02:43:30;15.52;;;8.75;;
79702;SDS011;69172;52.352;5.006;2023-08-06T02:45:59;16.67;;;9.95;;
79702;SDS011;69172;52.352;5.006;2023-08-06T02:48:25;14.25;;;9.15;;
79702;SDS011;69172;52.352;5.006;2023-08-06T02:50:51;17.02;;;10.00;;
79702;SDS011;69172;52.352;5.006;2023-08-06T02:53:16;15.63;;;9.82;;
79702;SDS011;69172;52.352;5.006;2023-08-06T02:55:48;17.13;;;10.65;;
79702;SDS011;69172;52.352;5.006;2023-08-06T02:58:14;17.10;;;10.57;;
79702;SDS011;69172;52.352;5.006;2023-08-06T03:00:40;16.73;;;10.82;;
79702;SDS011;69172;52.352;5.006;2023-08-06T03:03:05;16.50;;;11.27;;
79702;SDS011;69172;52.352;5.006;2023-08-06T03:05:31;18.52;;;11.48;;
79702;SDS011;69172;52.352;5.006;2023-08-06T03:07:56;17.95;;;11.10;;
79702;SDS011;69172;52.352;5.006;2023-08-06T03:10:22;19.73;;;12.25;;
79702;SDS011;69172;52.352;5.006;2023-08-06T03:12:47;20.88;;;12.75;;
79702;SDS011;69172;52.352;5.006;2023-08-06T03:15:13;21.05;;;13.57;;
79702;SDS011;69172;52.352;5.006;2023-08-06T03:17:38;22.05;;;12.13;;
79702;SDS011;69172;52.352;5.006;2023-08-06T03:20:04;25.10;;;14.23;;
79702;SDS011;69172;52.352;5.006;2023-08-06T03:22:30;21.75;;;13.95;;
79702;SDS011;69172;52.352;5.006;2023-08-06T03:24:55;22.35;;;14.18;;
79702;SDS011;69172;52.352;5.006;2023-08-06T03:27:21;22.17;;;14.65;;
79702;SDS011;69172;52.352;5.006;2023-08-06T03:29:48;26.17;;;16.38;;
79702;SDS011;69172;52.352;5.006;2023-08-06T03:32:15;23.23;;;14.70;;
79702;SDS011;69172;52.352;5.006;2023-08-06T03:34:40;22.92;;;15.75;;
79702;SDS011;69172;52.352;5.006;2023-08-06T03:37:05;22.63;;;14.43;;
79702;SDS011;69172;52.352;5.006;2023-08-06T03:39:31;24.30;;;15.80;;
79702;SDS011;69172;52.352;5.006;2023-08-06T03:41:56;23.83;;;15.40;;
79702;SDS011;69172;52.352;5.006;2023-08-06T03:44:21;23.50;;;14.65;;
79702;SDS011;69172;52.352;5.006;2023-08-06T03:46:47;23.65;;;15.27;;
79702;SDS011;69172;52.352;5.006;2023-08-06T03:49:12;24.80;;;15.88;;
79702;SDS011;69172;52.352;5.006;2023-08-06T03:51:38;23.05;;;15.95;;
79702;SDS011;69172;52.352;5.006;2023-08-06T03:54:03;26.95;;;16.27;;
79702;SDS011;69172;52.352;5.006;2023-08-06T03:56:28;26.30;;;15.40;;
79702;SDS011;69172;52.352;5.006;2023-08-06T03:58:54;25.33;;;16.60;;
79702;SDS011;69172;52.352;5.006;2023-08-06T04:01:19;23.88;;;15.32;;
79702;SDS011;69172;52.352;5.006;2023-08-06T04:03:44;25.88;;;16.38;;
79702;SDS011;69172;52.352;5.006;2023-08-06T04:06:10;24.95;;;15.57;;
79702;SDS011;69172;52.352;5.006;2023-08-06T04:08:36;24.65;;;14.60;;
79702;SDS011;69172;52.352;5.006;2023-08-06T04:11:01;23.73;;;14.93;;
79702;SDS011;69172;52.352;5.006;2023-08-06T04:13:27;23.67;;;15.10;;
79702;SDS011;69172;52.352;5.006;2023-08-06T04:15:52;23.65;;;14.25;;
79702;SDS011;69172;52.352;5.006;2023-08-06T04:18:18;23.83;;;15.30;;
79702;SDS011;69172;52.352;5.006;2023-08-06T04:20:46;21.98;;;14.05;;
79702;SDS011;69172;52.352;5.006;2023-08-06T04:23:14;21.70;;;15.07;;
79702;SDS011;69172;52.352;5.006;2023-08-06T04:25:40;24.02;;;14.50;;
79702;SDS011;69172;52.352;5.006;2023-08-06T04:28:06;21.65;;;14.32;;
79702;SDS011;69172;52.352;5.006;2023-08-06T04:30:34;23.20;;;15.15;;
79702;SDS011;69172;52.352;5.006;2023-08-06T04:33:01;21.33;;;14.57;;
79702;SDS011;69172;52.352;5.006;2023-08-06T04:35:27;21.23;;;13.38;;
79702;SDS011;69172;52.352;5.006;2023-08-06T04:37:54;23.38;;;14.52;;
79702;SDS011;69172;52.352;5.006;2023-08-06T04:40:20;21.08;;;13.27;;
79702;SDS011;69172;52.352;5.006;2023-08-06T04:42:45;23.00;;;13.95;;
79702;SDS011;69172;52.352;5.006;2023-08-06T04:45:11;12.15;;;6.97;;
79702;SDS011;69172;52.352;5.006;2023-08-06T04:47:36;10.07;;;5.65;;
79702;SDS011;69172;52.352;5.006;2023-08-06T04:50:01;7.78;;;3.88;;
79702;SDS011;69172;52.352;5.006;2023-08-06T04:52:27;6.75;;;2.60;;
79702;SDS011;69172;52.352;5.006;2023-08-06T04:54:56;5.85;;;2.53;;
79702;SDS011;69172;52.352;5.006;2023-08-06T04:57:21;6.72;;;2.60;;
79702;SDS011;69172;52.352;5.006;2023-08-06T04:59:47;5.07;;;2.22;;
79702;SDS011;69172;52.352;5.006;2023-08-06T05:02:12;4.35;;;1.90;;
79702;SDS011;69172;52.352;5.006;2023-08-06T05:04:38;4.35;;;1.85;;
79702;SDS011;69172;52.352;5.006;2023-08-06T05:07:04;4.53;;;1.80;;
79702;SDS011;69172;52.352;5.006;2023-08-06T05:09:31;6.25;;;2.10;;
79702;SDS011;69172;52.352;5.006;2023-08-06T05:11:56;4.32;;;1.98;;
79702;SDS011;69172;52.352;5.006;2023-08-06T05:14:22;5.20;;;2.40;;
79702;SDS011;69172;52.352;5.006;2023-08-06T05:16:47;6.80;;;2.15;;
79702;SDS011;69172;52.352;5.006;2023-08-06T05:19:13;4.65;;;2.13;;
79702;SDS011;69172;52.352;5.006;2023-08-06T05:21:38;5.38;;;2.20;;
79702;SDS011;69172;52.352;5.006;2023-08-06T05:24:04;6.53;;;2.97;;
79702;SDS011;69172;52.352;5.006;2023-08-06T05:26:30;6.68;;;2.80;;
79702;SDS011;69172;52.352;5.006;2023-08-06T05:28:56;7.10;;;3.38;;
79702;SDS011;69172;52.352;5.006;2023-08-06T05:31:22;9.25;;;4.80;;
79702;SDS011;69172;52.352;5.006;2023-08-06T05:33:53;11.35;;;4.88;;
79702;SDS011;69172;52.352;5.006;2023-08-06T05:36:18;9.40;;;4.95;;
79702;SDS011;69172;52.352;5.006;2023-08-06T05:38:44;10.50;;;5.35;;
79702;SDS011;69172;52.352;5.006;2023-08-06T05:41:09;10.77;;;5.28;;
79702;SDS011;69172;52.352;5.006;2023-08-06T05:43:35;10.07;;;5.57;;
79702;SDS011;69172;52.352;5.006;2023-08-06T05:46:00;11.50;;;5.80;;
79702;SDS011;69172;52.352;5.006;2023-08-06T05:48:25;11.63;;;6.20;;
79702;SDS011;69172;52.352;5.006;2023-08-06T05:50:53;11.38;;;5.95;;
79702;SDS011;69172;52.352;5.006;2023-08-06T05:53:18;11.88;;;6.65;;
79702;SDS011;69172;52.352;5.006;2023-08-06T05:55:44;12.02;;;6.25;;
79702;SDS011;69172;52.352;5.006;2023-08-06T05:58:10;10.52;;;5.75;;
79702;SDS011;69172;52.352;5.006;2023-08-06T06:00:35;11.48;;;6.28;;
79702;SDS011;69172;52.352;5.006;2023-08-06T06:03:01;11.68;;;5.95;;
79702;SDS011;69172;52.352;5.006;2023-08-06T06:05:27;9.75;;;5.25;;
79702;SDS011;69172;52.352;5.006;2023-08-06T06:07:53;11.10;;;5.75;;
79702;SDS011;69172;52.352;5.006;2023-08-06T06:10:18;8.65;;;4.38;;
79702;SDS011;69172;52.352;5.006;2023-08-06T06:12:44;9.27;;;4.47;;
79702;SDS011;69172;52.352;5.006;2023-08-06T06:15:09;11.23;;;5.38;;
79702;SDS011;69172;52.352;5.006;2023-08-06T06:17:35;11.75;;;6.47;;
79702;SDS011;69172;52.352;5.006;2023-08-06T06:20:00;13.60;;;7.57;;
79702;SDS011;69172;52.352;5.006;2023-08-06T06:22:26;13.98;;;7.35;;
79702;SDS011;69172;52.352;5.006;2023-08-06T06:24:51;14.15;;;6.68;;
79702;SDS011;69172;52.352;5.006;2023-08-06T06:27:16;16.20;;;8.10;;
79702;SDS011;69172;52.352;5.006;2023-08-06T06:29:42;15.48;;;7.95;;
79702;SDS011;69172;52.352;5.006;2023-08-06T06:32:08;18.17;;;8.82;;
79702;SDS011;69172;52.352;5.006;2023-08-06T06:34:34;17.65;;;9.10;;
79702;SDS011;69172;52.352;5.006;2023-08-06T06:37:00;17.35;;;8.63;;
79702;SDS011;69172;52.352;5.006;2023-08-06T06:39:25;15.55;;;7.93;;
79702;SDS011;69172;52.352;5.006;2023-08-06T06:41:51;15.90;;;7.40;;
79702;SDS011;69172;52.352;5.006;2023-08-06T06:44:17;15.35;;;7.80;;
79702;SDS011;69172;52.352;5.006;2023-08-06T06:46:42;14.98;;;8.43;;
79702;SDS011;69172;52.352;5.006;2023-08-06T06:49:08;14.60;;;7.43;;
79702;SDS011;69172;52.352;5.006;2023-08-06T06:51:33;12.02;;;7.05;;
79702;SDS011;69172;52.352;5.006;2023-08-06T06:53:58;14.18;;;7.70;;
79702;SDS011;69172;52.352;5.006;2023-08-06T06:56:24;10.32;;;5.18;;
79702;SDS011;69172;52.352;5.006;2023-08-06T06:58:49;8.90;;;4.10;;
79702;SDS011;69172;52.352;5.006;2023-08-06T07:01:14;8.52;;;3.90;;
79702;SDS011;69172;52.352;5.006;2023-08-06T07:03:40;8.95;;;3.70;;
79702;SDS011;69172;52.352;5.006;2023-08-06T07:06:05;7.30;;;3.22;;
79702;SDS011;69172;52.352;5.006;2023-08-06T07:08:31;7.60;;;3.13;;
79702;SDS011;69172;52.352;5.006;2023-08-06T07:11:04;8.07;;;3.17;;
79702;SDS011;69172;52.352;5.006;2023-08-06T07:13:31;10.57;;;3.50;;
79702;SDS011;69172;52.352;5.006;2023-08-06T07:15:57;7.22;;;2.72;;
79702;SDS011;69172;52.352;5.006;2023-08-06T07:18:23;10.23;;;3.17;;
79702;SDS011;69172;52.352;5.006;2023-08-06T07:20:52;8.65;;;3.60;;
79702;SDS011;69172;52.352;5.006;2023-08-06T07:23:22;8.73;;;3.70;;
79702;SDS011;69172;52.352;5.006;2023-08-06T07:25:48;7.28;;;2.88;;
79702;SDS011;69172;52.352;5.006;2023-08-06T07:28:14;8.55;;;3.38;;
79702;SDS011;69172;52.352;5.006;2023-08-06T07:30:41;7.95;;;3.50;;
79702;SDS011;69172;52.352;5.006;2023-08-06T07:33:07;6.93;;;2.83;;
79702;SDS011;69172;52.352;5.006;2023-08-06T07:35:33;15.57;;;4.45;;
79702;SDS011;69172;52.352;5.006;2023-08-06T07:37:58;9.98;;;4.00;;
79702;SDS011;69172;52.352;5.006;2023-08-06T07:40:24;11.30;;;5.43;;
79702;SDS011;69172;52.352;5.006;2023-08-06T07:42:49;14.27;;;5.00;;
79702;SDS011;69172;52.352;5.006;2023-08-06T07:45:15;10.57;;;5.07;;
79702;SDS011;69172;52.352;5.006;2023-08-06T07:47:40;12.38;;;5.57;;
79702;SDS011;69172;52.352;5.006;2023-08-06T07:50:06;10.55;;;5.43;;
79702;SDS011;69172;52.352;5.006;2023-08-06T07:52:32;11.77;;;5.55;;
79702;SDS011;69172;52.352;5.006;2023-08-06T07:54:57;11.43;;;5.72;;
79702;SDS011;69172;52.352;5.006;2023-08-06T07:57:23;12.02;;;6.78;;
79702;SDS011;69172;52.352;5.006;2023-08-06T07:59:49;12.60;;;6.43;;
79702;SDS011;69172;52.352;5.006;2023-08-06T08:02:15;11.38;;;6.45;;
79702;SDS011;69172;52.352;5.006;2023-08-06T08:04:40;12.48;;;6.95;;
79702;SDS011;69172;52.352;5.006;2023-08-06T08:07:06;14.57;;;6.93;;
79702;SDS011;69172;52.352;5.006;2023-08-06T08:09:31;14.68;;;7.28;;
79702;SDS011;69172;52.352;5.006;2023-08-06T08:11:57;11.80;;;6.80;;
79702;SDS011;69172;52.352;5.006;2023-08-06T08:14:24;11.68;;;6.13;;
79702;SDS011;69172;52.352;5.006;2023-08-06T08:16:49;13.13;;;6.43;;
79702;SDS011;69172;52.352;5.006;2023-08-06T08:19:14;13.05;;;6.47;;
79702;SDS011;69172;52.352;5.006;2023-08-06T08:21:40;11.30;;;5.88;;
79702;SDS011;69172;52.352;5.006;2023-08-06T08:24:05;14.10;;;6.57;;
79702;SDS011;69172;52.352;5.006;2023-08-06T08:26:31;12.95;;;6.45;;
79702;SDS011;69172;52.352;5.006;2023-08-06T08:28:56;11.80;;;6.22;;
79702;SDS011;69172;52.352;5.006;2023-08-06T08:31:23;11.88;;;6.03;;
79702;SDS011;69172;52.352;5.006;2023-08-06T08:33:48;12.00;;;6.47;;
79702;SDS011;69172;52.352;5.006;2023-08-06T08:36:14;11.90;;;6.13;;
79702;SDS011;69172;52.352;5.006;2023-08-06T08:38:39;12.50;;;6.13;;
79702;SDS011;69172;52.352;5.006;2023-08-06T08:41:04;15.43;;;7.50;;
79702;SDS011;69172;52.352;5.006;2023-08-06T08:43:30;11.40;;;6.10;;
79702;SDS011;69172;52.352;5.006;2023-08-06T08:45:56;12.38;;;6.20;;
79702;SDS011;69172;52.352;5.006;2023-08-06T08:48:26;10.43;;;5.28;;
79702;SDS011;69172;52.352;5.006;2023-08-06T08:50:52;10.77;;;5.22;;
79702;SDS011;69172;52.352;5.006;2023-08-06T08:53:18;14.20;;;5.63;;
79702;SDS011;69172;52.352;5.006;2023-08-06T08:55:46;11.77;;;5.55;;
79702;SDS011;69172;52.352;5.006;2023-08-06T08:58:13;12.88;;;6.22;;
79702;SDS011;69172;52.352;5.006;2023-08-06T09:00:40;14.98;;;6.95;;
79702;SDS011;69172;52.352;5.006;2023-08-06T09:03:07;12.52;;;6.32;;
79702;SDS011;69172;52.352;5.006;2023-08-06T09:05:33;14.45;;;7.30;;
79702;SDS011;69172;52.352;5.006;2023-08-06T09:08:03;15.05;;;6.75;;
79702;SDS011;69172;52.352;5.006;2023-08-06T09:10:29;15.65;;;6.90;;
79702;SDS011;69172;52.352;5.006;2023-08-06T09:12:55;12.40;;;6.03;;
79702;SDS011;69172;52.352;5.006;2023-08-06T09:15:25;11.20;;;5.55;;
79702;SDS011;69172;52.352;5.006;2023-08-06T09:17:54;13.80;;;6.13;;
79702;SDS011;69172;52.352;5.006;2023-08-06T09:20:20;11.68;;;4.82;;
79702;SDS011;69172;52.352;5.006;2023-08-06T09:22:49;12.05;;;4.80;;
79702;SDS011;69172;52.352;5.006;2023-08-06T09:25:22;11.73;;;4.88;;
79702;SDS011;69172;52.352;5.006;2023-08-06T09:27:49;12.88;;;4.65;;
79702;SDS011;69172;52.352;5.006;2023-08-06T09:30:34;10.73;;;4.30;;
79702;SDS011;69172;52.352;5.006;2023-08-06T09:33:01;16.08;;;5.68;;
79702;SDS011;69172;52.352;5.006;2023-08-06T09:35:30;9.18;;;4.00;;
79702;SDS011;69172;52.352;5.006;2023-08-06T09:38:06;10.77;;;4.55;;
79702;SDS011;69172;52.352;5.006;2023-08-06T09:40:33;14.27;;;4.63;;
79702;SDS011;69172;52.352;5.006;2023-08-06T09:42:59;11.18;;;4.03;;
79702;SDS011;69172;52.352;5.006;2023-08-06T09:45:35;10.13;;;4.13;;
79702;SDS011;69172;52.352;5.006;2023-08-06T09:48:03;10.73;;;3.88;;
79702;SDS011;69172;52.352;5.006;2023-08-06T09:50:30;8.60;;;3.70;;
79702;SDS011;69172;52.352;5.006;2023-08-06T09:52:57;6.80;;;2.92;;
79702;SDS011;69172;52.352;5.006;2023-08-06T09:55:24;10.02;;;3.03;;
79702;SDS011;69172;52.352;5.006;2023-08-06T09:57:51;8.65;;;3.13;;
79702;SDS011;69172;52.352;5.006;2023-08-06T10:00:17;9.27;;;3.08;;
79702;SDS011;69172;52.352;5.006;2023-08-06T10:02:43;9.55;;;3.28;;
79702;SDS011;69172;52.352;5.006;2023-08-06T10:05:10;8.88;;;3.33;;
79702;SDS011;69172;52.352;5.006;2023-08-06T10:07:35;7.22;;;2.47;;
79702;SDS011;69172;52.352;5.006;2023-08-06T10:10:02;8.52;;;2.47;;
79702;SDS011;69172;52.352;5.006;2023-08-06T10:12:28;5.60;;;1.90;;
79702;SDS011;69172;52.352;5.006;2023-08-06T10:14:59;9.25;;;2.42;;
79702;SDS011;69172;52.352;5.006;2023-08-06T10:17:29;5.90;;;2.10;;
79702;SDS011;69172;52.352;5.006;2023-08-06T10:19:57;7.50;;;2.17;;
79702;SDS011;69172;52.352;5.006;2023-08-06T10:22:24;7.38;;;2.53;;
79702;SDS011;69172;52.352;5.006;2023-08-06T10:27:20;7.93;;;2.55;;
79702;SDS011;69172;52.352;5.006;2023-08-06T10:30:20;7.80;;;2.75;;
79702;SDS011;69172;52.352;5.006;2023-08-06T10:32:52;6.45;;;2.28;;
79702;SDS011;69172;52.352;5.006;2023-08-06T10:35:37;11.07;;;3.15;;
79702;SDS011;69172;52.352;5.006;2023-08-06T10:38:10;11.07;;;2.83;;
79702;SDS011;69172;52.352;5.006;2023-08-06T10:40:43;10.57;;;2.78;;
79702;SDS011;69172;52.352;5.006;2023-08-06T10:43:27;8.50;;;2.72;;
79702;SDS011;69172;52.352;5.006;2023-08-06T10:46:00;10.10;;;2.53;;
79702;SDS011;69172;52.352;5.006;2023-08-06T10:51:03;7.50;;;2.78;;
79702;SDS011;69172;52.352;5.006;2023-08-06T10:53:31;9.30;;;2.50;;
79702;SDS011;69172;52.352;5.006;2023-08-06T10:55:57;9.15;;;2.00;;
79702;SDS011;69172;52.352;5.006;2023-08-06T10:58:23;7.47;;;2.08;;
79702;SDS011;69172;52.352;5.006;2023-08-06T11:00:48;6.78;;;2.03;;
79702;SDS011;69172;52.352;5.006;2023-08-06T11:03:14;6.30;;;1.40;;
79702;SDS011;69172;52.352;5.006;2023-08-06T11:05:40;4.60;;;1.60;;
79702;SDS011;69172;52.352;5.006;2023-08-06T11:08:05;5.30;;;1.48;;
79702;SDS011;69172;52.352;5.006;2023-08-06T11:10:34;4.28;;;1.42;;
79702;SDS011;69172;52.352;5.006;2023-08-06T11:13:03;6.82;;;1.60;;
79702;SDS011;69172;52.352;5.006;2023-08-06T11:15:29;7.20;;;1.75;;
79702;SDS011;69172;52.352;5.006;2023-08-06T11:17:56;5.68;;;1.40;;
79702;SDS011;69172;52.352;5.006;2023-08-06T11:20:22;6.25;;;1.65;;
79702;SDS011;69172;52.352;5.006;2023-08-06T11:22:47;7.57;;;1.67;;
79702;SDS011;69172;52.352;5.006;2023-08-06T11:25:13;5.82;;;1.80;;
79702;SDS011;69172;52.352;5.006;2023-08-06T11:27:38;7.40;;;1.80;;
79702;SDS011;69172;52.352;5.006;2023-08-06T11:30:04;3.75;;;1.20;;
79702;SDS011;69172;52.352;5.006;2023-08-06T11:32:30;4.60;;;1.42;;
79702;SDS011;69172;52.352;5.006;2023-08-06T11:34:55;5.05;;;1.60;;
79702;SDS011;69172;52.352;5.006;2023-08-06T11:37:22;5.45;;;1.58;;
79702;SDS011;69172;52.352;5.006;2023-08-06T11:39:49;5.45;;;1.52;;
79702;SDS011;69172;52.352;5.006;2023-08-06T11:42:15;5.32;;;1.52;;
79702;SDS011;69172;52.352;5.006;2023-08-06T11:44:41;5.53;;;1.70;;
79702;SDS011;69172;52.352;5.006;2023-08-06T11:47:14;5.78;;;2.08;;
79702;SDS011;69172;52.352;5.006;2023-08-06T11:52:11;6.28;;;1.77;;
79702;SDS011;69172;52.352;5.006;2023-08-06T12:07:37;6.10;;;2.10;;
79702;SDS011;69172;52.352;5.006;2023-08-06T16:06:28;5.70;;;0.93;;
79702;SDS011;69172;52.352;5.006;2023-08-06T16:13:25;8.60;;;1.10;;
79702;SDS011;69172;52.352;5.006;2023-08-06T16:15:50;6.50;;;1.02;;
79702;SDS011;69172;52.352;5.006;2023-08-06T16:18:16;9.35;;;1.35;;
79702;SDS011;69172;52.352;5.006;2023-08-06T16:20:42;12.15;;;1.45;;
79702;SDS011;69172;52.352;5.006;2023-08-06T16:23:08;6.45;;;1.00;;
79702;SDS011;69172;52.352;5.006;2023-08-06T16:25:38;5.97;;;0.80;;
79702;SDS011;69172;52.352;5.006;2023-08-06T16:28:04;5.63;;;0.90;;
79702;SDS011;69172;52.352;5.006;2023-08-06T16:30:30;6.18;;;0.75;;
79702;SDS011;69172;52.352;5.006;2023-08-06T16:32:58;3.63;;;0.50;;
79702;SDS011;69172;52.352;5.006;2023-08-06T16:35:24;5.07;;;0.80;;
79702;SDS011;69172;52.352;5.006;2023-08-06T16:37:51;8.32;;;1.33;;
79702;SDS011;69172;52.352;5.006;2023-08-06T16:40:17;6.15;;;0.90;;
79702;SDS011;69172;52.352;5.006;2023-08-06T16:42:42;9.05;;;1.52;;
79702;SDS011;69172;52.352;5.006;2023-08-06T16:45:08;9.85;;;1.42;;
79702;SDS011;69172;52.352;5.006;2023-08-06T16:47:33;8.60;;;1.35;;
79702;SDS011;69172;52.352;5.006;2023-08-06T16:49:59;8.40;;;1.40;;
79702;SDS011;69172;52.352;5.006;2023-08-06T16:52:24;10.18;;;1.92;;
79702;SDS011;69172;52.352;5.006;2023-08-06T16:54:50;10.07;;;1.33;;
79702;SDS011;69172;52.352;5.006;2023-08-06T16:57:15;13.60;;;2.20;;
79702;SDS011;69172;52.352;5.006;2023-08-06T16:59:41;7.53;;;1.60;;
79702;SDS011;69172;52.352;5.006;2023-08-06T17:02:06;10.55;;;1.83;;
79702;SDS011;69172;52.352;5.006;2023-08-06T17:04:32;9.70;;;1.30;;
79702;SDS011;69172;52.352;5.006;2023-08-06T17:06:57;8.75;;;1.80;;
79702;SDS011;69172;52.352;5.006;2023-08-06T17:09:23;6.88;;;1.13;;
79702;SDS011;69172;52.352;5.006;2023-08-06T17:11:48;9.02;;;1.40;;
79702;SDS011;69172;52.352;5.006;2023-08-06T17:14:14;7.40;;;1.15;;
79702;SDS011;69172;52.352;5.006;2023-08-06T17:16:39;9.52;;;1.80;;
79702;SDS011;69172;52.352;5.006;2023-08-06T17:19:05;7.68;;;1.08;;
79702;SDS011;69172;52.352;5.006;2023-08-06T17:21:30;10.65;;;1.90;;
79702;SDS011;69172;52.352;5.006;2023-08-06T17:23:55;12.85;;;1.92;;
79702;SDS011;69172;52.352;5.006;2023-08-06T17:26:21;9.43;;;1.60;;
79702;SDS011;69172;52.352;5.006;2023-08-06T17:28:46;5.88;;;1.20;;
79702;SDS011;69172;52.352;5.006;2023-08-06T17:31:12;5.05;;;1.40;;
79702;SDS011;69172;52.352;5.006;2023-08-06T17:33:38;10.55;;;1.13;;
79702;SDS011;69172;52.352;5.006;2023-08-06T17:36:05;9.13;;;1.23;;
79702;SDS011;69172;52.352;5.006;2023-08-06T17:38:30;10.88;;;1.33;;
79702;SDS011;69172;52.352;5.006;2023-08-06T17:40:55;6.35;;;1.10;;
79702;SDS011;69172;52.352;5.006;2023-08-06T17:43:23;10.38;;;1.70;;
79702;SDS011;69172;52.352;5.006;2023-08-06T17:45:48;9.20;;;1.50;;
79702;SDS011;69172;52.352;5.006;2023-08-06T17:48:14;7.90;;;1.05;;
79702;SDS011;69172;52.352;5.006;2023-08-06T17:50:45;9.82;;;1.75;;
79702;SDS011;69172;52.352;5.006;2023-08-06T17:53:11;10.60;;;1.77;;
79702;SDS011;69172;52.352;5.006;2023-08-06T17:55:37;8.88;;;1.42;;
79702;SDS011;69172;52.352;5.006;2023-08-06T17:58:03;10.50;;;1.77;;
79702;SDS011;69172;52.352;5.006;2023-08-06T18:00:30;9.13;;;2.05;;
79702;SDS011;69172;52.352;5.006;2023-08-06T18:02:56;7.65;;;1.23;;
79702;SDS011;69172;52.352;5.006;2023-08-06T18:05:21;13.70;;;1.52;;
79702;SDS011;69172;52.352;5.006;2023-08-06T18:07:46;10.65;;;1.98;;
79702;SDS011;69172;52.352;5.006;2023-08-06T18:10:12;5.72;;;1.20;;
79702;SDS011;69172;52.352;5.006;2023-08-06T18:12:38;10.05;;;1.17;;
79702;SDS011;69172;52.352;5.006;2023-08-06T18:15:07;10.32;;;1.40;;
79702;SDS011;69172;52.352;5.006;2023-08-06T18:17:33;10.65;;;1.50;;
79702;SDS011;69172;52.352;5.006;2023-08-06T18:19:58;8.75;;;1.27;;
79702;SDS011;69172;52.352;5.006;2023-08-06T18:22:24;4.60;;;1.08;;
79702;SDS011;69172;52.352;5.006;2023-08-06T18:24:49;4.80;;;0.77;;
79702;SDS011;69172;52.352;5.006;2023-08-06T18:27:15;8.77;;;1.05;;
79702;SDS011;69172;52.352;5.006;2023-08-06T18:29:45;8.25;;;1.35;;
79702;SDS011;69172;52.352;5.006;2023-08-06T18:32:11;12.25;;;1.48;;
79702;SDS011;69172;52.352;5.006;2023-08-06T18:34:37;13.88;;;1.63;;
79702;SDS011;69172;52.352;5.006;2023-08-06T18:37:03;9.15;;;1.60;;
79702;SDS011;69172;52.352;5.006;2023-08-06T18:39:29;12.75;;;1.83;;
79702;SDS011;69172;52.352;5.006;2023-08-06T18:41:54;10.18;;;2.35;;
79702;SDS011;69172;52.352;5.006;2023-08-06T18:44:20;11.35;;;1.83;;
79702;SDS011;69172;52.352;5.006;2023-08-06T18:46:45;14.13;;;2.00;;
79702;SDS011;69172;52.352;5.006;2023-08-06T18:49:11;9.25;;;1.60;;
79702;SDS011;69172;52.352;5.006;2023-08-06T18:51:36;13.88;;;1.75;;
79702;SDS011;69172;52.352;5.006;2023-08-06T18:54:02;13.10;;;1.50;;
79702;SDS011;69172;52.352;5.006;2023-08-06T18:56:28;6.30;;;1.30;;
79702;SDS011;69172;52.352;5.006;2023-08-06T18:58:53;12.13;;;1.50;;
79702;SDS011;69172;52.352;5.006;2023-08-06T19:01:19;10.25;;;1.95;;